FLE591 CYWG-CYLW
Flight info
| Callsign | FLE591 |
|---|---|
| Flight time | N/A |
| Altitude | 34000 |
| Route | LIVBI DCT DUKPO DCT FAREN DCT NILTT DCT RABOX DCT ROBTI NORIP5 |
| Aircraft | B738/M-SDE2E3FGHIRWXY/LB1 |
Departure
| Time | 2026-04-29 00:05 |
|---|---|
| Airport | Winnipeg / James Armstrong Richardson International Airport (CYWG) |
Arrival
| Time | N/A |
|---|---|
| Airport | Kelowna International Airport (CYLW) |
| Time | Latitude | Longitude | Altitude | Speed | Heading |
|---|---|---|---|---|---|
| 2026-04-28 23:57 | 49.90749 | -97.22627 | 767 ft | 0 kts | 259° |
| 2026-04-29 00:00 | 49.90745 | -97.22658 | 768 ft | 7 kts | 259° |
| 2026-04-29 00:00 | 49.90728 | -97.22793 | 768 ft | 17 kts | 253° |
| 2026-04-29 00:00 | 49.90677 | -97.22896 | 769 ft | 15 kts | 212° |
| 2026-04-29 00:01 | 49.90645 | -97.22916 | 769 ft | 10 kts | 195° |
| 2026-04-29 00:01 | 49.90567 | -97.22934 | 768 ft | 12 kts | 188° |
| 2026-04-29 00:01 | 49.90487 | -97.22952 | 768 ft | 11 kts | 188° |
| 2026-04-29 00:01 | 49.90412 | -97.22970 | 768 ft | 10 kts | 189° |
| 2026-04-29 00:02 | 49.90341 | -97.22988 | 768 ft | 11 kts | 190° |
| 2026-04-29 00:02 | 49.90261 | -97.23010 | 767 ft | 11 kts | 191° |
| 2026-04-29 00:02 | 49.90194 | -97.23071 | 768 ft | 11 kts | 231° |
| 2026-04-29 00:02 | 49.90149 | -97.23163 | 768 ft | 4 kts | 221° |
| 2026-04-29 00:03 | 49.89852 | -97.22866 | 765 ft | 0 kts | 204° |
| 2026-04-29 00:03 | 49.89659 | -97.22568 | 764 ft | 7 kts | 202° |
| 2026-04-29 00:03 | 49.89575 | -97.22635 | 764 ft | 16 kts | 223° |
| 2026-04-29 00:03 | 49.89541 | -97.22746 | 764 ft | 7 kts | 264° |
| 2026-04-29 00:04 | 49.89546 | -97.22819 | 764 ft | 6 kts | 288° |
| 2026-04-29 00:04 | 49.89565 | -97.22871 | 764 ft | 12 kts | 307° |
| 2026-04-29 00:04 | 49.89630 | -97.22952 | 765 ft | 15 kts | 324° |
| 2026-04-29 00:04 | 49.89867 | -97.23269 | 767 ft | 83 kts | 319° |
| 2026-04-29 00:05 | 49.90500 | -97.24132 | 775 ft | 158 kts | 319° |
| 2026-04-29 00:05 | 49.91425 | -97.25416 | 1168 ft | 195 kts | 318° |
| 2026-04-29 00:05 | 49.92463 | -97.26878 | 2155 ft | 209 kts | 319° |
| 2026-04-29 00:05 | 49.93576 | -97.28384 | 3125 ft | 223 kts | 320° |
| 2026-04-29 00:06 | 49.94752 | -97.29967 | 4220 ft | 232 kts | 319° |
| 2026-04-29 00:06 | 49.95824 | -97.31780 | 5431 ft | 236 kts | 300° |
| 2026-04-29 00:06 | 49.96155 | -97.34290 | 6362 ft | 254 kts | 267° |
| 2026-04-29 00:06 | 49.95838 | -97.37007 | 7447 ft | 256 kts | 261° |
| 2026-04-29 00:07 | 49.95506 | -97.39706 | 8170 ft | 262 kts | 263° |
| 2026-04-29 00:07 | 49.95215 | -97.42494 | 9028 ft | 263 kts | 264° |
| 2026-04-29 00:07 | 49.94941 | -97.45277 | 9842 ft | 265 kts | 265° |
| 2026-04-29 00:07 | 49.94661 | -97.48158 | 10507 ft | 273 kts | 265° |
| 2026-04-29 00:08 | 49.94373 | -97.51131 | 10935 ft | 288 kts | 265° |
| 2026-04-29 00:08 | 49.94064 | -97.54326 | 11361 ft | 304 kts | 264° |
| 2026-04-29 00:08 | 49.93740 | -97.57653 | 11751 ft | 319 kts | 264° |
| 2026-04-29 00:08 | 49.93398 | -97.61138 | 12356 ft | 327 kts | 264° |
| 2026-04-29 00:09 | 49.93047 | -97.64704 | 13100 ft | 331 kts | 264° |
| 2026-04-29 00:09 | 49.92698 | -97.68235 | 13785 ft | 335 kts | 263° |
| 2026-04-29 00:09 | 49.92359 | -97.71841 | 14498 ft | 338 kts | 265° |
| 2026-04-29 00:09 | 49.92200 | -97.75496 | 15161 ft | 341 kts | 271° |
| 2026-04-29 00:10 | 49.92358 | -97.79208 | 15819 ft | 344 kts | 278° |
| 2026-04-29 00:10 | 49.92753 | -97.82998 | 16470 ft | 348 kts | 281° |
| 2026-04-29 00:10 | 49.93225 | -97.86770 | 17072 ft | 353 kts | 282° |
| 2026-04-29 00:10 | 49.93709 | -97.90512 | 17697 ft | 357 kts | 282° |
| 2026-04-29 00:11 | 49.94192 | -97.94291 | 18297 ft | 360 kts | 282° |
| 2026-04-29 00:11 | 49.94680 | -97.98158 | 18931 ft | 363 kts | 281° |
| 2026-04-29 00:11 | 49.95660 | -98.06018 | 20158 ft | 369 kts | 281° |
| 2026-04-29 00:12 | 49.96163 | -98.10078 | 20701 ft | 373 kts | 281° |
| 2026-04-29 00:12 | 49.96668 | -98.14172 | 21257 ft | 377 kts | 281° |
| 2026-04-29 00:12 | 49.97178 | -98.18323 | 21802 ft | 381 kts | 281° |
| 2026-04-29 00:12 | 49.97667 | -98.22324 | 22339 ft | 383 kts | 280° |
| 2026-04-29 00:13 | 49.98172 | -98.26457 | 22845 ft | 387 kts | 280° |
| 2026-04-29 00:13 | 49.98680 | -98.30637 | 23353 ft | 390 kts | 280° |
| 2026-04-29 00:13 | 49.99198 | -98.34912 | 23829 ft | 394 kts | 280° |
| 2026-04-29 00:13 | 49.99724 | -98.39265 | 24316 ft | 397 kts | 280° |
| 2026-04-29 00:14 | 50.00242 | -98.43570 | 24766 ft | 401 kts | 280° |
| 2026-04-29 00:14 | 50.00771 | -98.47971 | 25245 ft | 403 kts | 280° |
| 2026-04-29 00:14 | 50.01295 | -98.52355 | 25657 ft | 406 kts | 280° |
| 2026-04-29 00:14 | 50.01826 | -98.56815 | 26062 ft | 409 kts | 280° |
| 2026-04-29 00:15 | 50.02360 | -98.61307 | 26454 ft | 413 kts | 280° |
| 2026-04-29 00:15 | 50.02896 | -98.65830 | 26840 ft | 416 kts | 279° |
| 2026-04-29 00:15 | 50.03426 | -98.70327 | 27190 ft | 419 kts | 279° |
| 2026-04-29 00:15 | 50.03950 | -98.74789 | 27521 ft | 421 kts | 279° |
| 2026-04-29 00:16 | 50.04478 | -98.79294 | 27842 ft | 424 kts | 279° |
| 2026-04-29 00:16 | 50.05002 | -98.83780 | 28155 ft | 425 kts | 279° |
| 2026-04-29 00:16 | 50.05531 | -98.88329 | 28416 ft | 429 kts | 279° |
| 2026-04-29 00:16 | 50.06064 | -98.92919 | 28700 ft | 431 kts | 279° |
| 2026-04-29 00:17 | 50.06592 | -98.97488 | 28999 ft | 433 kts | 279° |
| 2026-04-29 00:17 | 50.07119 | -99.02070 | 29344 ft | 432 kts | 279° |
| 2026-04-29 00:17 | 50.07641 | -99.06618 | 29738 ft | 431 kts | 279° |
| 2026-04-29 00:17 | 50.08163 | -99.11179 | 30081 ft | 430 kts | 280° |
| 2026-04-29 00:18 | 50.08689 | -99.15787 | 30410 ft | 430 kts | 279° |
| 2026-04-29 00:18 | 50.09207 | -99.20347 | 30759 ft | 429 kts | 279° |
| 2026-04-29 00:18 | 50.09722 | -99.24890 | 31091 ft | 428 kts | 280° |
| 2026-04-29 00:18 | 50.10232 | -99.29414 | 31385 ft | 429 kts | 280° |
| 2026-04-29 00:19 | 50.10744 | -99.33978 | 31678 ft | 429 kts | 280° |
| 2026-04-29 00:19 | 50.11250 | -99.38493 | 31969 ft | 429 kts | 280° |
| 2026-04-29 00:19 | 50.11758 | -99.43042 | 32274 ft | 428 kts | 280° |
| 2026-04-29 00:19 | 50.12269 | -99.47646 | 32563 ft | 428 kts | 280° |
| 2026-04-29 00:20 | 50.12768 | -99.52157 | 32847 ft | 427 kts | 280° |
| 2026-04-29 00:20 | 50.13268 | -99.56685 | 33133 ft | 426 kts | 280° |
| 2026-04-29 00:20 | 50.13765 | -99.61214 | 33419 ft | 425 kts | 280° |
| 2026-04-29 00:20 | 50.14262 | -99.65747 | 33720 ft | 425 kts | 279° |
| 2026-04-29 00:21 | 50.14751 | -99.70239 | 33985 ft | 425 kts | 279° |
| 2026-04-29 00:21 | 50.15737 | -99.79325 | 34090 ft | 428 kts | 279° |
| 2026-04-29 00:22 | 50.16725 | -99.88422 | 34085 ft | 424 kts | 281° |
| 2026-04-29 00:22 | 50.18083 | -99.97317 | 34081 ft | 423 kts | 285° |
| 2026-04-29 00:23 | 50.19582 | -100.06177 | 34084 ft | 424 kts | 285° |
| 2026-04-29 00:23 | 50.21044 | -100.15008 | 34078 ft | 425 kts | 285° |
| 2026-04-29 00:24 | 50.22495 | -100.23933 | 34082 ft | 424 kts | 285° |
| 2026-04-29 00:24 | 50.23921 | -100.32813 | 34081 ft | 424 kts | 285° |
| 2026-04-29 00:25 | 50.25348 | -100.41772 | 34084 ft | 423 kts | 285° |
| 2026-04-29 00:25 | 50.26752 | -100.50654 | 34088 ft | 422 kts | 285° |
| 2026-04-29 00:26 | 50.28142 | -100.59506 | 34084 ft | 423 kts | 285° |
| 2026-04-29 00:26 | 50.29532 | -100.68403 | 34090 ft | 423 kts | 284° |
| 2026-04-29 00:27 | 50.30925 | -100.77371 | 34091 ft | 424 kts | 284° |
| 2026-04-29 00:27 | 50.31968 | -100.84117 | 34095 ft | 424 kts | 284° |
| 2026-04-29 00:28 | 50.33341 | -100.93043 | 34096 ft | 423 kts | 284° |
| 2026-04-29 00:28 | 50.34710 | -101.01994 | 34097 ft | 424 kts | 284° |
| 2026-04-29 00:29 | 50.36066 | -101.10907 | 34103 ft | 423 kts | 284° |
| 2026-04-29 00:29 | 50.37419 | -101.19840 | 34104 ft | 422 kts | 284° |
| 2026-04-29 00:30 | 50.38761 | -101.28759 | 34104 ft | 422 kts | 285° |
| 2026-04-29 00:30 | 50.40091 | -101.37646 | 34113 ft | 422 kts | 285° |
| 2026-04-29 00:31 | 50.41415 | -101.46545 | 34111 ft | 422 kts | 285° |
| 2026-04-29 00:31 | 50.42740 | -101.55512 | 34116 ft | 423 kts | 285° |
| 2026-04-29 00:32 | 50.44053 | -101.64435 | 34117 ft | 422 kts | 285° |
| 2026-04-29 00:32 | 50.45364 | -101.73399 | 34119 ft | 421 kts | 284° |
| 2026-04-29 00:33 | 50.46660 | -101.82320 | 34116 ft | 421 kts | 284° |
| 2026-04-29 00:33 | 50.47946 | -101.91230 | 34113 ft | 421 kts | 284° |
| 2026-04-29 00:34 | 50.49234 | -102.00204 | 34104 ft | 422 kts | 284° |
| 2026-04-29 00:34 | 50.50517 | -102.09186 | 34110 ft | 422 kts | 284° |
| 2026-04-29 00:35 | 50.51786 | -102.18125 | 34113 ft | 422 kts | 284° |
| 2026-04-29 00:35 | 50.53045 | -102.27046 | 34122 ft | 421 kts | 285° |
| 2026-04-29 00:36 | 50.54297 | -102.35973 | 34113 ft | 420 kts | 285° |
| 2026-04-29 00:36 | 50.55546 | -102.44926 | 34111 ft | 420 kts | 285° |
| 2026-04-29 00:37 | 50.56784 | -102.53861 | 34107 ft | 421 kts | 285° |
| 2026-04-29 00:37 | 50.58024 | -102.62866 | 34106 ft | 420 kts | 285° |
| 2026-04-29 00:38 | 50.59245 | -102.71785 | 34119 ft | 421 kts | 284° |
| 2026-04-29 00:38 | 50.60474 | -102.80819 | 34118 ft | 421 kts | 284° |
| 2026-04-29 00:39 | 50.61682 | -102.89760 | 34117 ft | 420 kts | 284° |
| 2026-04-29 00:39 | 50.62882 | -102.98689 | 34106 ft | 419 kts | 284° |
| 2026-04-29 00:40 | 50.64078 | -103.07642 | 34112 ft | 419 kts | 284° |
| 2026-04-29 00:40 | 50.65270 | -103.16613 | 34106 ft | 419 kts | 285° |
| 2026-04-29 00:41 | 50.66452 | -103.25576 | 34107 ft | 418 kts | 285° |
| 2026-04-29 00:41 | 50.67618 | -103.34476 | 34112 ft | 418 kts | 285° |
| 2026-04-29 00:42 | 50.68788 | -103.43460 | 34111 ft | 418 kts | 285° |
| 2026-04-29 00:42 | 50.69939 | -103.52357 | 34117 ft | 416 kts | 285° |
| 2026-04-29 00:43 | 50.71093 | -103.61324 | 34108 ft | 417 kts | 285° |
| 2026-04-29 00:43 | 50.72234 | -103.70258 | 34119 ft | 417 kts | 284° |
| 2026-04-29 00:44 | 50.73368 | -103.79189 | 34115 ft | 417 kts | 284° |
| 2026-04-29 00:44 | 50.74496 | -103.88133 | 34111 ft | 416 kts | 284° |
| 2026-04-29 00:45 | 50.75610 | -103.97034 | 34115 ft | 415 kts | 284° |
| 2026-04-29 00:45 | 50.76729 | -104.06017 | 34117 ft | 418 kts | 285° |
| 2026-04-29 00:46 | 50.77834 | -104.14954 | 34116 ft | 416 kts | 284° |
| 2026-04-29 00:46 | 50.78931 | -104.23892 | 34117 ft | 414 kts | 284° |
| 2026-04-29 00:47 | 50.80016 | -104.32785 | 34110 ft | 414 kts | 285° |
| 2026-04-29 00:47 | 50.81095 | -104.41681 | 34120 ft | 414 kts | 285° |
| 2026-04-29 00:48 | 50.82177 | -104.50671 | 34113 ft | 413 kts | 285° |
| 2026-04-29 00:48 | 50.83280 | -104.59906 | 34109 ft | 413 kts | 285° |
| 2026-04-29 00:49 | 50.84342 | -104.68858 | 34109 ft | 412 kts | 284° |
| 2026-04-29 00:49 | 50.85411 | -104.77921 | 34113 ft | 412 kts | 284° |
| 2026-04-29 00:50 | 50.86451 | -104.86799 | 34120 ft | 412 kts | 284° |
| 2026-04-29 00:50 | 50.87483 | -104.95679 | 34121 ft | 412 kts | 284° |
| 2026-04-29 00:51 | 50.88479 | -105.04610 | 34119 ft | 413 kts | 282° |
| 2026-04-29 00:51 | 50.89037 | -105.13631 | 34116 ft | 414 kts | 279° |
| 2026-04-29 00:52 | 50.89508 | -105.22679 | 34123 ft | 414 kts | 279° |
| 2026-04-29 00:52 | 50.90001 | -105.31731 | 34123 ft | 413 kts | 280° |
| 2026-04-29 00:53 | 50.90503 | -105.40771 | 34130 ft | 413 kts | 280° |
| 2026-04-29 00:53 | 50.91003 | -105.49770 | 34122 ft | 412 kts | 280° |
| 2026-04-29 00:54 | 50.91501 | -105.58823 | 34118 ft | 413 kts | 280° |
| 2026-04-29 00:54 | 50.91992 | -105.67847 | 34103 ft | 413 kts | 279° |
| 2026-04-29 00:55 | 50.92479 | -105.76910 | 34119 ft | 414 kts | 279° |
| 2026-04-29 00:55 | 50.92954 | -105.85860 | 34118 ft | 414 kts | 279° |
| 2026-04-29 00:56 | 50.93429 | -105.94969 | 34114 ft | 413 kts | 279° |
| 2026-04-29 00:56 | 50.93893 | -106.04003 | 34111 ft | 412 kts | 279° |
| 2026-04-29 00:57 | 50.94351 | -106.13010 | 34115 ft | 413 kts | 279° |
| 2026-04-29 00:57 | 50.94805 | -106.22111 | 34119 ft | 413 kts | 279° |
| 2026-04-29 00:58 | 50.95248 | -106.31168 | 34124 ft | 413 kts | 279° |
| 2026-04-29 00:58 | 50.95684 | -106.40176 | 34124 ft | 413 kts | 279° |
| 2026-04-29 00:59 | 50.96119 | -106.49326 | 34127 ft | 414 kts | 279° |
| 2026-04-29 00:59 | 50.96543 | -106.58411 | 34124 ft | 414 kts | 279° |
| 2026-04-29 01:00 | 50.96961 | -106.67497 | 34123 ft | 414 kts | 278° |
| 2026-04-29 01:00 | 50.97372 | -106.76626 | 34125 ft | 414 kts | 278° |